A noite de hoje está com bastante incidência de nevoeiros na região de Curitiba. O aeroporto Afonso Pena no momento está abaixo dos mínimos meteorológicos para pouso.

Abaixo você confere os reportes últimos meteorológicos até as 0350Z:
SBCT 012342Z 11004KT 1800 0800SE R15/0600 R33/0600 BCFG BR NSC 13/12 Q1020=
SBCT 020000Z 11002KT 1800 R15/0800 R33/0600 BCFG BR NSC 13/12 Q1020=
SBCT 020015Z 09003KT 0800 R15/0800 R33/0600 FG NSC 13/12 Q1020=
SBCT 020100Z 08003KT 2500 BR NSC 13/12 Q1020=
SBCT 020150Z 06003KT 0800 R15/0800 R33/0800 FG NSC 12/11 Q1020=
SBCT 020200Z 07003KT 0800 R15/0800 R33/0800 FG NSC 12/11 Q1020=
SBCT 020300Z 04003KT 0400 R15/0400 R33/0400 FG BKN001 12/12 Q1021=
SBCT 020305Z 03002KT 0200 R15/0200 R33/0200 FG VV000 12/12 Q1021=